createdAt,value
2022-11-26T00:01:20.777Z,85.73
2022-11-26T00:03:47.918Z,56.77
2022-11-26T00:06:35.811Z,45.73
2022-11-26T00:09:04.603Z,46.90
2022-11-26T00:11:31.443Z,45.43
2022-11-26T00:13:58.490Z,41.93
2022-11-26T00:16:26.246Z,45.73
2022-11-26T00:18:53.320Z,41.57
2022-11-26T00:21:23.600Z,40.77
2022-11-26T00:23:51.328Z,39.50
2022-11-26T00:26:20.250Z,38.83
2022-11-26T00:28:49.968Z,86.53
2022-11-26T00:31:17.148Z,71.30
2022-11-26T00:33:44.474Z,56.07
2022-11-26T00:36:27.820Z,51.47
2022-11-26T00:38:57.341Z,43.10
2022-11-26T00:41:25.819Z,39.57
2022-11-26T00:43:52.891Z,41.90
2022-11-26T00:46:21.684Z,38.87
2022-11-26T00:48:49.091Z,41.73
2022-11-26T00:51:19.282Z,38.53
2022-11-26T00:53:47.581Z,39.00
2022-11-26T00:56:18.157Z,37.43
2022-11-26T00:58:46.834Z,84.47
2022-11-26T01:01:17.736Z,63.53
2022-11-26T01:03:44.938Z,56.47
2022-11-26T01:06:19.164Z,52.30
2022-11-26T01:08:46.365Z,44.77
2022-11-26T01:11:16.016Z,49.00
2022-11-26T01:13:44.238Z,41.43
2022-11-26T01:16:19.755Z,43.20
2022-11-26T01:18:47.912Z,43.37
2022-11-26T01:21:15.378Z,43.73
2022-11-26T01:23:42.462Z,40.47
2022-11-26T01:26:16.840Z,38.57
2022-11-26T01:28:44.970Z,53.60
2022-11-26T01:31:16.861Z,53.70
2022-11-26T01:33:44.776Z,44.60
2022-11-26T01:36:22.976Z,43.57
2022-11-26T01:38:52.224Z,46.20
2022-11-26T01:41:34.203Z,47.57
2022-11-26T01:44:01.401Z,42.63
2022-11-26T01:46:30.390Z,42.53
2022-11-26T01:49:24.149Z,43.83
2022-11-26T01:51:58.407Z,39.33
2022-11-26T01:54:25.698Z,36.90
2022-11-26T01:56:55.236Z,69.70
2022-11-26T01:59:30.220Z,42.83
2022-11-26T02:01:59.031Z,50.03
2022-11-26T02:04:38.500Z,47.23
2022-11-26T02:07:05.724Z,40.13
2022-11-26T02:09:33.245Z,40.13
2022-11-26T02:12:00.150Z,41.67
2022-11-26T02:14:31.857Z,38.87
2022-11-26T02:17:06.324Z,38.70
2022-11-26T02:20:11.285Z,36.20
2022-11-26T02:22:50.388Z,36.03
2022-11-26T02:25:45.132Z,40.50
2022-11-26T02:28:33.677Z,91.73
2022-11-26T02:31:35.843Z,63.13
2022-11-26T02:34:37.427Z,45.17
2022-11-26T02:37:27.104Z,60.10
2022-11-26T02:39:53.864Z,44.37
2022-11-26T02:42:30.080Z,43.00
2022-11-26T02:45:16.183Z,43.43
2022-11-26T02:47:44.967Z,41.97
2022-11-26T02:50:45.816Z,35.20
2022-11-26T02:53:13.656Z,39.37
2022-11-26T02:55:44.494Z,43.87
2022-11-26T02:58:11.663Z,64.17
2022-11-26T03:00:41.248Z,57.47
2022-11-26T03:03:12.086Z,41.77
2022-11-26T03:05:40.748Z,53.53
2022-11-26T03:08:08.004Z,40.57
2022-11-26T03:10:34.793Z,35.73
2022-11-26T03:13:01.806Z,47.97
2022-11-26T03:15:28.708Z,45.47
2022-11-26T03:17:55.824Z,42.93
2022-11-26T03:20:22.598Z,43.60
2022-11-26T03:22:49.822Z,48.60
2022-11-26T03:25:16.665Z,45.00
2022-11-26T03:27:43.722Z,68.17
2022-11-26T03:30:11.028Z,61.70
2022-11-26T03:32:38.113Z,59.53
2022-11-26T03:35:05.533Z,50.53
2022-11-26T03:37:32.572Z,56.13
2022-11-26T03:39:59.470Z,45.77
2022-11-26T03:42:26.606Z,44.00
2022-11-26T03:44:53.566Z,43.23
2022-11-26T03:47:21.001Z,41.23
2022-11-26T03:49:47.800Z,36.43
2022-11-26T03:52:14.912Z,40.23
2022-11-26T03:54:41.639Z,38.63
2022-11-26T03:57:08.758Z,57.60
2022-11-26T03:59:35.488Z,53.47
2022-11-26T04:02:02.522Z,55.00
2022-11-26T04:04:29.319Z,54.50
2022-11-26T04:06:56.470Z,48.63
2022-11-26T04:09:23.371Z,46.87
2022-11-26T04:11:50.428Z,45.90
2022-11-26T04:14:17.199Z,44.00
2022-11-26T04:16:44.272Z,48.40
2022-11-26T04:19:11.068Z,46.70
2022-11-26T04:21:38.188Z,39.87
2022-11-26T04:24:05.191Z,45.90
2022-11-26T04:26:32.283Z,86.20
2022-11-26T04:28:59.092Z,87.63
2022-11-26T04:31:26.336Z,65.73
2022-11-26T04:33:53.112Z,71.93
2022-11-26T04:36:20.332Z,57.83
2022-11-26T04:38:47.380Z,44.00
2022-11-26T04:41:14.386Z,46.83
2022-11-26T04:43:41.149Z,50.53
2022-11-26T04:46:08.323Z,46.57
2022-11-26T04:48:35.049Z,43.53
2022-11-26T04:51:02.098Z,49.23
2022-11-26T04:53:28.910Z,43.63
2022-11-26T04:55:56.022Z,213.83
2022-11-26T04:58:22.831Z,96.13
2022-11-26T05:00:51.352Z,53.57
2022-11-26T05:03:19.008Z,73.70
2022-11-26T05:05:47.103Z,54.87
2022-11-26T05:08:13.894Z,48.87
2022-11-26T05:10:41.121Z,43.00
2022-11-26T05:13:08.127Z,41.70
2022-11-26T05:15:35.253Z,41.90
2022-11-26T05:18:02.308Z,41.37
2022-11-26T05:20:29.354Z,39.23
2022-11-26T05:22:56.180Z,38.43
2022-11-26T05:25:23.213Z,83.93
2022-11-26T05:27:50.004Z,82.73
2022-11-26T05:30:17.078Z,62.43
2022-11-26T05:32:43.855Z,62.27
2022-11-26T05:35:10.900Z,59.70
2022-11-26T05:37:37.690Z,51.23
2022-11-26T05:40:05.350Z,41.90
2022-11-26T05:42:32.120Z,43.10
2022-11-26T05:44:59.215Z,43.57
2022-11-26T05:47:26.165Z,43.53
2022-11-26T05:49:53.340Z,45.47
2022-11-26T05:52:20.931Z,42.37
2022-11-26T05:54:47.968Z,53.63
2022-11-26T05:57:14.861Z,47.03
2022-11-26T05:59:42.110Z,75.57
2022-11-26T06:02:09.021Z,46.73
2022-11-26T06:04:36.358Z,40.37
2022-11-26T06:07:03.439Z,47.23
2022-11-26T06:09:30.682Z,54.43
2022-11-26T06:11:57.500Z,54.03
2022-11-26T06:14:24.507Z,53.80
2022-11-26T06:16:51.370Z,53.77
2022-11-26T06:19:18.421Z,47.63
2022-11-26T06:21:45.320Z,46.90
2022-11-26T06:24:12.663Z,42.50
2022-11-26T06:26:39.728Z,38.80
2022-11-26T06:29:07.064Z,38.93
2022-11-26T06:31:33.945Z,41.77
2022-11-26T06:34:01.198Z,51.03
2022-11-26T06:36:27.965Z,47.17
2022-11-26T06:38:55.082Z,42.40
2022-11-26T06:41:21.979Z,44.23
2022-11-26T06:43:49.090Z,42.03
2022-11-26T06:46:15.865Z,40.27
2022-11-26T06:48:43.041Z,44.93
2022-11-26T06:51:12.047Z,55.50
2022-11-26T06:53:39.587Z,71.10
2022-11-26T06:56:08.457Z,54.27
2022-11-26T06:58:35.715Z,49.40
2022-11-26T07:01:10.247Z,42.63
2022-11-26T07:03:37.642Z,43.20
2022-11-26T07:06:04.784Z,45.60
2022-11-26T07:08:31.987Z,37.83
2022-11-26T07:11:03.015Z,39.43
2022-11-26T07:13:30.161Z,40.03
2022-11-26T07:16:02.315Z,40.07
2022-11-26T07:18:29.867Z,41.60
2022-11-26T07:20:56.961Z,39.90
2022-11-26T07:23:23.989Z,42.70
2022-11-26T07:25:50.714Z,52.27
2022-11-26T07:28:17.878Z,43.53
2022-11-26T07:30:44.896Z,39.73
2022-11-26T07:33:12.064Z,46.77
2022-11-26T07:35:38.796Z,52.53
2022-11-26T07:38:05.870Z,42.90
2022-11-26T07:40:32.613Z,44.47
2022-11-26T07:43:00.247Z,41.73
2022-11-26T07:45:27.082Z,50.90
2022-11-26T07:47:54.230Z,47.93
2022-11-26T07:50:21.172Z,47.67
2022-11-26T07:52:52.110Z,47.60
2022-11-26T07:55:18.979Z,88.33
2022-11-26T07:57:46.157Z,104.03
2022-11-26T08:00:13.985Z,81.27
2022-11-26T08:02:41.136Z,76.97
2022-11-26T08:05:08.209Z,61.50
2022-11-26T08:07:36.570Z,57.97
2022-11-26T08:10:04.703Z,54.37
2022-11-26T08:12:31.859Z,61.60
2022-11-26T08:14:58.604Z,61.57
2022-11-26T08:17:25.717Z,53.20
2022-11-26T08:19:52.476Z,51.30
2022-11-26T08:22:19.829Z,57.53
2022-11-26T08:24:46.625Z,103.43
2022-11-26T08:27:13.713Z,89.77
2022-11-26T08:29:40.534Z,118.67
2022-11-26T08:32:07.880Z,108.77
2022-11-26T08:34:34.666Z,123.33
2022-11-26T08:37:01.786Z,104.27
2022-11-26T08:39:28.503Z,112.00
2022-11-26T08:41:55.881Z,79.60
2022-11-26T08:44:22.774Z,64.87
2022-11-26T08:46:50.183Z,54.07
2022-11-26T08:49:17.146Z,44.07
2022-11-26T08:51:44.307Z,60.17
2022-11-26T08:54:11.208Z,117.97
2022-11-26T08:56:38.683Z,64.33
2022-11-26T08:59:05.473Z,59.83
2022-11-26T09:01:33.712Z,59.77
2022-11-26T09:04:02.149Z,66.83
2022-11-26T09:06:30.556Z,54.67
2022-11-26T09:09:12.698Z,50.23
2022-11-26T09:11:43.034Z,42.33
2022-11-26T09:14:10.647Z,44.77
2022-11-26T09:16:38.113Z,43.63
2022-11-26T09:19:06.391Z,41.63
2022-11-26T09:21:35.185Z,48.97
2022-11-26T09:24:02.397Z,39.90
2022-11-26T09:26:31.752Z,50.93
2022-11-26T09:28:58.851Z,77.17
2022-11-26T09:31:26.359Z,57.67
2022-11-26T09:33:55.675Z,65.10
2022-11-26T09:36:22.906Z,48.07
2022-11-26T09:38:53.830Z,46.37
2022-11-26T09:41:42.637Z,51.40
2022-11-26T09:44:25.391Z,53.43
2022-11-26T09:47:12.186Z,44.70
2022-11-26T09:50:03.806Z,111.97
2022-11-26T09:52:38.861Z,88.50
2022-11-26T09:55:14.199Z,108.37
2022-11-26T09:57:53.100Z,89.30
2022-11-26T10:00:27.419Z,78.47
2022-11-26T10:02:56.139Z,155.83
2022-11-26T10:05:32.886Z,123.90
2022-11-26T10:08:12.270Z,94.43
2022-11-26T10:11:04.189Z,51.17
2022-11-26T10:13:44.208Z,39.23
2022-11-26T10:16:20.324Z,38.67
2022-11-26T10:19:15.305Z,38.47
2022-11-26T10:21:58.755Z,39.53
2022-11-26T10:24:37.102Z,37.67
2022-11-26T10:27:13.431Z,41.23
2022-11-26T10:29:46.553Z,40.67
2022-11-26T10:32:21.397Z,40.43
2022-11-26T10:34:51.998Z,42.70
2022-11-26T10:37:23.381Z,39.27
2022-11-26T10:40:00.100Z,41.33
2022-11-26T10:42:40.267Z,39.50
2022-11-26T10:45:18.886Z,39.70
2022-11-26T10:47:45.773Z,38.00
2022-11-26T10:50:46.154Z,39.53
2022-11-26T10:53:07.392Z,37.60
2022-11-26T10:55:38.512Z,39.10
2022-11-26T10:58:07.981Z,39.63
2022-11-26T11:00:41.154Z,41.03
2022-11-26T11:03:44.995Z,40.20
2022-11-26T11:06:19.063Z,40.63
2022-11-26T11:08:51.846Z,40.90
2022-11-26T11:11:26.024Z,43.83
2022-11-26T11:13:52.922Z,43.57
2022-11-26T11:16:26.360Z,42.53
2022-11-26T11:19:04.213Z,46.73
2022-11-26T11:21:35.931Z,46.60
2022-11-26T11:24:18.759Z,45.57
2022-11-26T11:26:47.681Z,47.60
2022-11-26T11:29:32.443Z,50.57
2022-11-26T11:32:02.524Z,45.77
2022-11-26T11:34:38.531Z,45.27
2022-11-26T11:37:14.855Z,45.37
2022-11-26T11:39:42.727Z,42.83
2022-11-26T11:42:24.056Z,44.57
2022-11-26T11:44:52.171Z,44.87
2022-11-26T11:47:25.368Z,42.37
2022-11-26T11:50:13.295Z,43.17
2022-11-26T11:52:52.209Z,44.30
2022-11-26T11:55:27.384Z,45.00
2022-11-26T11:58:22.259Z,42.73
2022-11-26T12:01:30.786Z,40.87
2022-11-26T12:04:26.585Z,40.87
2022-11-26T12:07:31.943Z,41.77
2022-11-26T12:10:21.428Z,41.40
2022-11-26T12:12:54.034Z,43.00
2022-11-26T12:15:51.814Z,44.83
2022-11-26T12:18:23.166Z,44.57
2022-11-26T12:21:04.164Z,45.63
2022-11-26T12:23:51.347Z,42.57
2022-11-26T12:26:40.649Z,50.90
2022-11-26T12:29:16.006Z,51.37
2022-11-26T12:31:50.280Z,49.97
2022-11-26T12:34:24.939Z,44.43
2022-11-26T12:36:59.576Z,45.37
2022-11-26T12:39:53.328Z,45.77
2022-11-26T12:42:30.782Z,44.23
2022-11-26T12:45:07.294Z,42.37
2022-11-26T12:47:39.002Z,43.57
2022-11-26T12:50:15.635Z,43.17
2022-11-26T12:53:16.933Z,42.80
2022-11-26T12:55:54.371Z,42.60
2022-11-26T12:58:30.186Z,43.67
2022-11-26T13:00:58.558Z,44.17
2022-11-26T13:03:30.486Z,54.77
2022-11-26T13:06:02.367Z,46.87
2022-11-26T13:08:29.325Z,52.13
2022-11-26T13:11:34.433Z,46.47
2022-11-26T13:14:14.426Z,49.47
2022-11-26T13:16:50.501Z,45.13
2022-11-26T13:19:23.807Z,47.13
2022-11-26T13:22:04.091Z,46.57
2022-11-26T13:25:00.691Z,45.03
2022-11-26T13:27:59.983Z,45.17
2022-11-26T13:30:39.709Z,49.90
2022-11-26T13:33:12.150Z,55.13
2022-11-26T13:35:44.902Z,52.90
2022-11-26T13:38:22.451Z,49.93
2022-11-26T13:41:13.430Z,51.40
2022-11-26T13:43:43.042Z,60.27
2022-11-26T13:46:22.045Z,60.63
2022-11-26T13:49:03.430Z,56.20
2022-11-26T13:51:38.563Z,52.43
2022-11-26T13:54:19.743Z,51.13
2022-11-26T13:56:47.959Z,49.00
2022-11-26T13:59:22.773Z,51.50
2022-11-26T14:01:52.785Z,48.93
2022-11-26T14:04:22.645Z,51.90
2022-11-26T14:07:09.940Z,47.80
2022-11-26T14:09:42.664Z,51.37
2022-11-26T14:12:13.684Z,48.47
2022-11-26T14:14:42.053Z,48.33
2022-11-26T14:17:14.946Z,48.77
2022-11-26T14:19:41.757Z,46.83
2022-11-26T14:22:11.500Z,50.60
2022-11-26T14:24:50.502Z,52.13
2022-11-26T14:27:21.885Z,53.90
2022-11-26T14:30:06.717Z,51.37
2022-11-26T14:32:37.203Z,52.57
2022-11-26T14:35:12.583Z,51.67
2022-11-26T14:37:50.631Z,52.07
2022-11-26T14:40:37.655Z,53.17
2022-11-26T14:43:19.581Z,53.40
2022-11-26T14:46:12.713Z,50.50
2022-11-26T14:48:45.276Z,52.60
2022-11-26T14:51:16.930Z,55.73
2022-11-26T14:53:47.430Z,48.43
2022-11-26T14:56:14.382Z,51.57
2022-11-26T14:58:52.196Z,49.80
2022-11-26T15:01:27.293Z,51.27
2022-11-26T15:04:05.644Z,52.03
2022-11-26T15:06:42.896Z,52.10
2022-11-26T15:09:15.377Z,49.83
2022-11-26T15:12:05.321Z,51.00
2022-11-26T15:14:46.889Z,51.20
2022-11-26T15:17:16.308Z,49.10
2022-11-26T15:19:43.901Z,48.93
2022-11-26T15:22:29.719Z,53.83
2022-11-26T15:24:57.151Z,52.07
2022-11-26T15:27:31.417Z,53.43
2022-11-26T15:29:58.757Z,54.97
2022-11-26T15:32:33.338Z,53.63
2022-11-26T15:35:02.617Z,55.43
2022-11-26T15:37:29.520Z,56.13
2022-11-26T15:40:33.910Z,56.50
2022-11-26T15:43:02.733Z,55.67
2022-11-26T15:45:41.988Z,52.53
2022-11-26T15:48:27.633Z,48.53
2022-11-26T15:51:05.447Z,49.13
2022-11-26T15:53:36.152Z,47.17
2022-11-26T15:56:03.941Z,52.33
2022-11-26T15:58:33.884Z,49.83
2022-11-26T16:01:03.088Z,48.07
2022-11-26T16:03:38.724Z,42.73
2022-11-26T16:06:08.495Z,45.40
2022-11-26T16:08:35.375Z,44.80
2022-11-26T16:11:08.724Z,40.90
2022-11-26T16:13:36.209Z,42.87
2022-11-26T16:16:16.245Z,41.13
2022-11-26T16:18:47.348Z,42.17
2022-11-26T16:21:17.554Z,41.77
2022-11-26T16:23:51.920Z,39.70
2022-11-26T16:26:19.500Z,39.60
2022-11-26T16:28:47.435Z,38.13
2022-11-26T16:31:15.772Z,39.33
2022-11-26T16:33:42.968Z,37.90
2022-11-26T16:36:26.115Z,41.80
2022-11-26T16:38:53.452Z,42.57
2022-11-26T16:41:22.158Z,41.40
2022-11-26T16:43:50.011Z,41.87
2022-11-26T16:46:20.866Z,39.57
2022-11-26T16:48:48.134Z,43.00
2022-11-26T16:51:15.803Z,37.43
2022-11-26T16:53:43.175Z,37.87
2022-11-26T16:56:24.562Z,39.10
2022-11-26T16:58:51.557Z,37.57
2022-11-26T17:01:18.971Z,39.37
2022-11-26T17:03:46.098Z,36.30
2022-11-26T17:06:35.047Z,35.23
2022-11-26T17:09:01.917Z,37.40
2022-11-26T17:11:29.007Z,35.87
2022-11-26T17:13:55.805Z,36.87
2022-11-26T17:16:23.292Z,35.63
2022-11-26T17:18:50.625Z,38.57
2022-11-26T17:21:17.736Z,36.90
2022-11-26T17:23:44.513Z,37.10
2022-11-26T17:26:17.393Z,36.83
2022-11-26T17:28:44.350Z,37.57
2022-11-26T17:31:11.501Z,35.37
2022-11-26T17:33:38.539Z,34.87
2022-11-26T17:36:14.396Z,36.80
2022-11-26T17:38:41.211Z,40.43
2022-11-26T17:41:08.604Z,37.43
2022-11-26T17:43:35.355Z,47.57
2022-11-26T17:46:03.277Z,37.17
2022-11-26T17:48:30.089Z,38.03
2022-11-26T17:50:57.188Z,37.17
2022-11-26T17:53:24.021Z,37.43
2022-11-26T17:55:51.431Z,41.13
2022-11-26T17:58:18.153Z,37.00
2022-11-26T18:00:45.256Z,45.60
2022-11-26T18:03:12.024Z,40.57
2022-11-26T18:05:42.025Z,35.43
2022-11-26T18:08:09.318Z,39.73
2022-11-26T18:10:39.546Z,34.40
2022-11-26T18:13:06.652Z,31.97
2022-11-26T18:15:33.786Z,31.80
2022-11-26T18:18:00.806Z,31.37
2022-11-26T18:20:28.672Z,28.67
2022-11-26T18:22:58.350Z,29.27
2022-11-26T18:25:26.003Z,29.47
2022-11-26T18:27:52.876Z,27.53
2022-11-26T18:30:20.710Z,27.83
2022-11-26T18:32:47.524Z,27.40
2022-11-26T18:35:14.657Z,28.80
2022-11-26T18:37:42.027Z,27.80
2022-11-26T18:40:12.391Z,26.43
2022-11-26T18:42:39.220Z,25.77
2022-11-26T18:45:09.105Z,27.10
2022-11-26T18:47:35.920Z,28.60
2022-11-26T18:50:03.385Z,27.07
2022-11-26T18:52:30.210Z,26.57
2022-11-26T18:54:57.354Z,26.60
2022-11-26T18:57:24.081Z,26.73
2022-11-26T18:59:51.548Z,26.87
2022-11-26T19:02:18.409Z,27.40
2022-11-26T19:04:46.004Z,25.77
2022-11-26T19:07:14.108Z,26.77
2022-11-26T19:09:42.387Z,25.73
2022-11-26T19:12:11.843Z,27.03
2022-11-26T19:14:39.094Z,24.77
2022-11-26T19:17:05.854Z,23.30
2022-11-26T19:19:33.192Z,22.67
2022-11-26T19:22:01.603Z,23.20
2022-11-26T19:24:29.646Z,23.43
2022-11-26T19:26:56.792Z,23.83
2022-11-26T19:29:23.908Z,22.87
2022-11-26T19:31:50.779Z,22.03
2022-11-26T19:34:18.022Z,22.70
2022-11-26T19:36:48.521Z,20.67
2022-11-26T19:39:16.374Z,23.23
2022-11-26T19:41:43.235Z,23.53
2022-11-26T19:44:10.359Z,25.20
2022-11-26T19:46:40.759Z,22.40
2022-11-26T19:49:11.239Z,24.27
2022-11-26T19:51:38.474Z,24.93
2022-11-26T19:54:05.758Z,24.37
2022-11-26T19:56:33.161Z,22.77
2022-11-26T19:59:03.120Z,23.13
2022-11-26T20:01:31.742Z,25.93
2022-11-26T20:04:00.697Z,25.90
2022-11-26T20:06:29.483Z,25.07
2022-11-26T20:08:58.351Z,26.10
2022-11-26T20:11:25.827Z,25.70
2022-11-26T20:13:53.365Z,27.53
2022-11-26T20:16:25.544Z,25.83
2022-11-26T20:18:53.211Z,27.60
2022-11-26T20:21:22.811Z,27.80
2022-11-26T20:23:50.771Z,26.90
2022-11-26T20:26:25.254Z,25.70
2022-11-26T20:28:53.007Z,26.33
2022-11-26T20:31:24.069Z,25.77
2022-11-26T20:33:52.885Z,25.77
2022-11-26T20:36:21.114Z,24.03
2022-11-26T20:38:55.767Z,24.63
2022-11-26T20:41:23.351Z,23.73
2022-11-26T20:43:56.536Z,23.37
2022-11-26T20:46:26.835Z,21.83
2022-11-26T20:48:54.457Z,22.93
2022-11-26T20:51:22.052Z,21.67
2022-11-26T20:53:51.384Z,24.00
2022-11-26T20:56:20.532Z,23.00
2022-11-26T20:58:48.333Z,21.03
2022-11-26T21:01:19.269Z,22.50
2022-11-26T21:03:46.819Z,23.37
2022-11-26T21:06:14.607Z,24.50
2022-11-26T21:08:42.433Z,19.47
2022-11-26T21:11:09.769Z,21.93
2022-11-26T21:13:38.004Z,21.30
2022-11-26T21:16:06.420Z,21.50
2022-11-26T21:18:33.907Z,20.33
2022-11-26T21:21:00.893Z,21.37
2022-11-26T21:23:27.972Z,21.47
2022-11-26T21:25:54.733Z,20.70
2022-11-26T21:28:21.788Z,22.53
2022-11-26T21:30:48.627Z,20.00
2022-11-26T21:33:15.685Z,20.50
2022-11-26T21:35:42.482Z,21.80
2022-11-26T21:38:09.762Z,21.03
2022-11-26T21:40:36.506Z,20.83
2022-11-26T21:43:03.545Z,21.33
2022-11-26T21:45:30.465Z,22.87
2022-11-26T21:47:57.563Z,23.73
2022-11-26T21:50:24.308Z,22.93
2022-11-26T21:52:51.391Z,24.17
2022-11-26T21:55:18.142Z,23.50
2022-11-26T21:57:45.162Z,26.17
2022-11-26T22:00:12.470Z,23.10
2022-11-26T22:02:39.556Z,22.53
2022-11-26T22:05:06.728Z,23.33
2022-11-26T22:07:33.842Z,23.33
2022-11-26T22:10:00.849Z,23.43
2022-11-26T22:12:27.958Z,21.67
2022-11-26T22:14:54.777Z,23.97
2022-11-26T22:17:21.834Z,22.40
2022-11-26T22:19:48.592Z,22.63
2022-11-26T22:22:15.635Z,21.57
2022-11-26T22:24:42.539Z,21.27
2022-11-26T22:27:10.498Z,21.07
2022-11-26T22:29:37.740Z,21.90
2022-11-26T22:32:05.134Z,20.83
2022-11-26T22:34:31.911Z,20.67
2022-11-26T22:36:58.954Z,20.83
2022-11-26T22:39:25.784Z,21.43
2022-11-26T22:41:52.991Z,21.17
2022-11-26T22:44:19.783Z,19.63
2022-11-26T22:46:46.818Z,19.80
2022-11-26T22:49:15.708Z,19.57
2022-11-26T22:51:43.084Z,20.17
2022-11-26T22:54:12.058Z,20.73
2022-11-26T22:56:39.297Z,21.27
2022-11-26T22:59:08.063Z,21.47
2022-11-26T23:01:36.616Z,19.50
2022-11-26T23:04:06.299Z,19.97
2022-11-26T23:06:34.691Z,19.63
2022-11-26T23:09:03.314Z,20.67
2022-11-26T23:11:33.604Z,20.57
2022-11-26T23:14:02.116Z,21.07
2022-11-26T23:16:30.499Z,19.70
2022-11-26T23:18:57.628Z,19.43
2022-11-26T23:21:26.890Z,20.10
2022-11-26T23:23:54.379Z,20.17
2022-11-26T23:26:27.270Z,19.77
2022-11-26T23:28:58.279Z,19.63
2022-11-26T23:31:30.939Z,20.10
2022-11-26T23:33:58.294Z,19.30
2022-11-26T23:36:26.044Z,21.27
2022-11-26T23:38:53.052Z,19.70
2022-11-26T23:41:20.107Z,20.93
2022-11-26T23:43:47.103Z,21.87
2022-11-26T23:46:17.458Z,19.90
2022-11-26T23:48:44.810Z,20.80
2022-11-26T23:51:15.203Z,20.50
2022-11-26T23:53:43.707Z,20.20
2022-11-26T23:56:16.954Z,21.50
2022-11-26T23:58:43.723Z,21.03
